Time;durP1;ratioP1;P1;durP2;ratioP2;P2;SDS_P1;SDS_P2;PMS_P1;PMS_P2;Temp;Humidity;BMP_temperature;BMP_pressure;BME280_temperature;BME280_humidity;BME280_pressure;Samples;Min_cycle;Max_cycle;Signal;HPM_P1;HPM_P2
2021/09/23 00:00:18;;;;;;;2.50;2.30;;;17.70;68.10;;;;;;5005724;28;20034;-77
2021/09/23 00:05:13;;;;;;;2.65;2.45;;;17.70;68.10;;;;;;4991651;28;20185;-79
2021/09/23 00:07:40;;;;;;;2.05;1.95;;;17.70;68.20;;;;;;4988354;28;20049;-79
2021/09/23 00:10:09;;;;;;;2.25;2.05;;;17.70;68.20;;;;;;4987972;28;20062;-78
2021/09/23 00:12:35;;;;;;;2.30;2.10;;;17.70;68.20;;;;;;4987911;28;20081;-78
2021/09/23 00:15:03;;;;;;;2.97;2.20;;;17.70;68.20;;;;;;4986739;28;20346;-80
2021/09/23 00:17:29;;;;;;;2.40;2.20;;;17.70;68.20;;;;;;5007669;28;20414;-79
2021/09/23 00:19:55;;;;;;;3.03;2.42;;;17.70;68.20;;;;;;5008409;28;20401;-78
2021/09/23 00:22:21;;;;;;;2.15;2.00;;;17.70;68.30;;;;;;4982533;28;20041;-79
2021/09/23 00:24:47;;;;;;;2.42;2.22;;;17.70;68.30;;;;;;5009344;28;20022;-78
2021/09/23 00:27:13;;;;;;;2.20;2.00;;;17.60;68.10;;;;;;4991247;28;20489;-80
2021/09/23 00:29:39;;;;;;;2.30;2.10;;;17.60;68.20;;;;;;4974892;28;20071;-79
2021/09/23 00:32:05;;;;;;;2.42;1.88;;;17.60;68.20;;;;;;4975188;28;20485;-78
2021/09/23 00:34:31;;;;;;;2.45;2.22;;;17.60;68.20;;;;;;4990376;28;20118;-79
2021/09/23 00:36:57;;;;;;;2.15;1.95;;;17.60;68.20;;;;;;5006995;28;20180;-79
2021/09/23 00:39:24;;;;;;;2.45;2.05;;;17.60;68.20;;;;;;5008269;28;20057;-80
2021/09/23 00:41:51;;;;;;;2.38;2.08;;;17.60;68.20;;;;;;4990539;28;20038;-78
2021/09/23 00:44:21;;;;;;;3.05;2.17;;;17.60;68.30;;;;;;4990599;28;20025;-79
2021/09/23 00:46:50;;;;;;;3.13;1.90;;;17.60;68.30;;;;;;5008070;28;20038;-78
2021/09/23 00:49:18;;;;;;;2.33;1.92;;;17.60;68.30;;;;;;4990644;28;20038;-80
2021/09/23 00:51:45;;;;;;;2.50;1.88;;;17.60;68.30;;;;;;4966917;28;20521;-79
2021/09/23 00:54:12;;;;;;;2.20;2.00;;;17.60;68.30;;;;;;4982268;28;20031;-79
2021/09/23 00:56:39;;;;;;;1.98;1.88;;;17.60;68.30;;;;;;4987516;28;20038;-80
2021/09/23 00:59:05;;;;;;;2.38;2.17;;;17.60;68.30;;;;;;4986621;28;20050;-78
2021/09/23 01:01:32;;;;;;;2.67;1.90;;;17.60;68.30;;;;;;4987183;28;20437;-76
2021/09/23 01:04:01;;;;;;;2.22;2.03;;;17.60;68.30;;;;;;4977939;28;20097;-80
2021/09/23 01:06:28;;;;;;;2.13;1.92;;;17.60;68.30;;;;;;4990063;28;20092;-79
2021/09/23 01:08:56;;;;;;;1.85;1.58;;;17.60;68.30;;;;;;4990340;28;20030;-80
2021/09/23 01:11:23;;;;;;;2.15;1.80;;;17.50;68.20;;;;;;4990337;28;20137;-80
2021/09/23 01:13:50;;;;;;;4.03;1.80;;;17.50;68.20;;;;;;4990955;28;20565;-79
2021/09/23 01:16:28;;;;;;;2.50;1.85;;;17.50;68.20;;;;;;4989680;28;20418;-78
2021/09/23 01:19:17;;;;;;;2.40;1.90;;;17.50;68.20;;;;;;4977955;28;20057;-79
2021/09/23 01:21:44;;;;;;;3.40;2.10;;;17.50;68.20;;;;;;4971585;28;20030;-79
2021/09/23 01:24:10;;;;;;;2.22;2.03;;;17.50;68.20;;;;;;4979932;28;20437;-78
2021/09/23 01:26:36;;;;;;;2.13;1.92;;;17.50;68.20;;;;;;4970748;28;20260;-78
2021/09/23 01:29:25;;;;;;;1.67;1.58;;;17.50;68.20;;;;;;4957808;28;20290;-78
2021/09/23 01:31:55;;;;;;;1.65;1.55;;;17.50;68.20;;;;;;4999096;28;20113;-78
2021/09/23 01:34:24;;;;;;;1.70;1.60;;;17.50;68.30;;;;;;4975143;28;20038;-78
2021/09/23 01:36:50;;;;;;;1.63;1.52;;;17.50;68.30;;;;;;4990991;28;20037;-79
2021/09/23 01:39:20;;;;;;;1.98;1.33;;;17.50;68.30;;;;;;4996564;28;20316;-77
2021/09/23 01:41:47;;;;;;;2.20;1.80;;;17.50;68.40;;;;;;5007119;28;20085;-78
2021/09/23 01:44:16;;;;;;;1.48;1.38;;;17.50;68.40;;;;;;4990569;28;20045;-78
2021/09/23 01:46:42;;;;;;;1.58;1.40;;;17.50;68.50;;;;;;4986057;28;20030;-78
2021/09/23 01:49:21;;;;;;;2.20;1.50;;;17.40;68.30;;;;;;4974855;28;20125;-80
2021/09/23 01:51:48;;;;;;;1.52;1.42;;;17.50;68.50;;;;;;4979698;28;20022;-77
2021/09/23 01:54:15;;;;;;;2.35;1.40;;;17.40;68.30;;;;;;4987679;28;20034;-78
2021/09/23 01:56:41;;;;;;;2.97;2.17;;;17.40;68.40;;;;;;4979982;28;20049;-78
2021/09/23 01:59:08;;;;;;;2.53;1.83;;;17.40;68.40;;;;;;4995130;28;20041;-79
2021/09/23 02:01:34;;;;;;;1.85;1.58;;;17.50;68.60;;;;;;4994915;28;20091;-78
2021/09/23 02:04:00;;;;;;;1.75;1.38;;;17.50;68.60;;;;;;5010776;28;20030;-79
2021/09/23 02:06:37;;;;;;;1.42;1.33;;;17.40;68.50;;;;;;4994237;28;20097;-79
2021/09/23 02:09:03;;;;;;;1.52;1.20;;;17.40;68.50;;;;;;4992792;28;20068;-79
2021/09/23 02:11:32;;;;;;;1.70;1.30;;;17.40;68.50;;;;;;5016907;28;20017;-78
2021/09/23 02:13:58;;;;;;;1.98;1.50;;;17.40;68.50;;;;;;5015110;28;20121;-81
2021/09/23 02:16:24;;;;;;;2.92;1.30;;;17.40;68.50;;;;;;5012324;28;20109;-81
2021/09/23 02:18:51;;;;;;;1.50;1.30;;;17.40;68.50;;;;;;4987840;28;20030;-81
2021/09/23 02:21:17;;;;;;;3.05;1.60;;;17.40;68.50;;;;;;4996153;28;20084;-79
2021/09/23 02:23:45;;;;;;;3.63;2.15;;;17.40;68.60;;;;;;4985346;28;20034;-78
2021/09/23 02:26:12;;;;;;;2.42;1.90;;;17.40;68.60;;;;;;4977826;28;20045;-78
2021/09/23 02:28:39;;;;;;;3.67;2.00;;;17.40;68.60;;;;;;4994330;28;20034;-78
2021/09/23 02:31:05;;;;;;;1.80;1.50;;;17.40;68.60;;;;;;4993652;28;20346;-77
2021/09/23 02:33:33;;;;;;;2.10;1.40;;;17.40;68.60;;;;;;4977316;28;20499;-79
2021/09/23 02:36:00;;;;;;;1.90;1.60;;;17.30;68.40;;;;;;4993604;28;20034;-78
2021/09/23 02:38:26;;;;;;;1.92;1.83;;;17.30;68.40;;;;;;4977216;28;20441;-79
2021/09/23 02:40:52;;;;;;;2.13;1.52;;;17.30;68.50;;;;;;5009677;28;20052;-78
2021/09/23 02:43:18;;;;;;;2.92;1.83;;;17.20;68.30;;;;;;4976769;28;20032;-78
2021/09/23 02:45:44;;;;;;;1.88;1.77;;;17.20;68.40;;;;;;4991338;28;20070;-78
2021/09/23 02:48:10;;;;;;;2.50;1.80;;;17.20;68.50;;;;;;4992543;28;20450;-79
2021/09/23 02:50:36;;;;;;;2.55;2.00;;;17.10;68.30;;;;;;5000043;28;20031;-77
2021/09/23 02:53:03;;;;;;;3.28;2.05;;;17.10;68.30;;;;;;4968871;28;20029;-79
2021/09/23 02:55:29;;;;;;;3.50;1.90;;;17.10;68.40;;;;;;4973041;28;20034;-79
2021/09/23 02:57:55;;;;;;;2.28;2.03;;;17.00;68.30;;;;;;4973381;28;20041;-78
2021/09/23 03:00:21;;;;;;;3.40;2.00;;;17.00;68.30;;;;;;4957006;28;20034;-78
2021/09/23 03:02:47;;;;;;;3.05;2.40;;;17.00;68.40;;;;;;4989178;28;20034;-79
2021/09/23 03:05:13;;;;;;;3.50;2.58;;;16.90;68.30;;;;;;4972742;28;20117;-78
2021/09/23 03:07:39;;;;;;;2.47;2.28;;;16.90;68.40;;;;;;4989332;28;20023;-78
2021/09/23 03:10:06;;;;;;;2.53;2.05;;;16.80;68.30;;;;;;4972870;28;20584;-79
2021/09/23 03:12:33;;;;;;;2.60;2.40;;;16.80;68.30;;;;;;4972846;28;20030;-79
2021/09/23 03:15:00;;;;;;;3.08;2.20;;;16.80;68.40;;;;;;4989123;28;20085;-79
2021/09/23 03:17:26;;;;;;;2.83;1.77;;;16.70;68.30;;;;;;4969889;28;20493;-78
2021/09/23 03:19:54;;;;;;;2.90;2.60;;;16.70;68.40;;;;;;4992610;28;20045;-80
2021/09/23 03:22:22;;;;;;;2.80;2.53;;;16.60;68.20;;;;;;4976214;28;20105;-78
2021/09/23 03:24:48;;;;;;;3.10;2.45;;;16.60;68.30;;;;;;4984079;28;20034;-78
2021/09/23 03:27:14;;;;;;;2.70;2.15;;;16.60;68.40;;;;;;4992084;28;20030;-79
2021/09/23 03:29:40;;;;;;;2.85;2.05;;;16.50;68.30;;;;;;5009533;28;20600;-79
2021/09/23 03:32:06;;;;;;;3.13;2.63;;;16.50;68.40;;;;;;4992324;28;20390;-80
2021/09/23 03:34:32;;;;;;;3.05;2.85;;;16.40;68.30;;;;;;5010408;28;20593;-78
2021/09/23 03:36:59;;;;;;;2.70;2.20;;;16.40;68.30;;;;;;4979836;28;20045;-79
2021/09/23 03:39:25;;;;;;;2.28;2.03;;;16.40;68.40;;;;;;4995969;28;20049;-78
2021/09/23 03:41:51;;;;;;;4.50;3.22;;;16.30;68.30;;;;;;4963998;28;20490;-79
2021/09/23 03:44:16;;;;;;;2.50;2.30;;;16.30;68.40;;;;;;4995893;28;20030;-80
2021/09/23 03:46:42;;;;;;;2.67;2.47;;;16.20;68.30;;;;;;4995751;28;20037;-79
2021/09/23 03:49:10;;;;;;;3.20;2.92;;;16.20;68.40;;;;;;4980219;28;20026;-78
2021/09/23 03:51:36;;;;;;;2.97;2.45;;;16.10;68.30;;;;;;4995633;28;20484;-78
2021/09/23 03:54:03;;;;;;;3.05;2.72;;;16.10;68.50;;;;;;4976472;28;20046;-77
2021/09/23 03:56:30;;;;;;;3.58;2.95;;;16.10;68.60;;;;;;4995627;28;20045;-78
2021/09/23 03:58:57;;;;;;;3.53;2.70;;;16.10;68.70;;;;;;4995757;28;20125;-79
2021/09/23 04:01:23;;;;;;;2.50;2.30;;;16.00;68.60;;;;;;4979768;28;20033;-78
2021/09/23 04:03:49;;;;;;;4.07;2.70;;;16.00;68.70;;;;;;5013518;28;20488;-79
2021/09/23 04:06:14;;;;;;;3.08;2.08;;;16.00;68.80;;;;;;4995500;28;20111;-79
2021/09/23 04:08:42;;;;;;;3.72;2.10;;;16.00;68.80;;;;;;4995315;28;20055;-80
2021/09/23 04:11:14;;;;;;;3.17;2.88;;;16.00;68.90;;;;;;4995530;28;20112;-79
2021/09/23 04:13:41;;;;;;;3.22;2.15;;;16.00;68.90;;;;;;4979194;28;20034;-79
2021/09/23 04:16:08;;;;;;;1.90;1.80;;;16.00;69.00;;;;;;4979749;28;20132;-78
2021/09/23 04:18:34;;;;;;;2.75;1.80;;;16.00;69.00;;;;;;4996138;28;20101;-79
2021/09/23 04:21:00;;;;;;;2.92;1.98;;;16.00;69.00;;;;;;4995406;28;20030;-79
2021/09/23 04:23:26;;;;;;;2.20;1.95;;;16.00;69.10;;;;;;4995161;28;20041;-79
2021/09/23 04:25:52;;;;;;;2.85;2.00;;;16.00;69.10;;;;;;4971043;28;20049;-78
2021/09/23 04:28:18;;;;;;;4.10;2.63;;;16.00;69.20;;;;;;4994780;28;20474;-79
2021/09/23 04:30:45;;;;;;;2.90;1.98;;;16.00;69.20;;;;;;4978897;28;20054;-78
2021/09/23 04:33:11;;;;;;;2.67;1.90;;;16.00;69.30;;;;;;4994787;28;20076;-79
2021/09/23 04:35:37;;;;;;;4.90;2.63;;;16.00;69.30;;;;;;4995503;28;20053;-79
2021/09/23 04:38:05;;;;;;;2.72;1.83;;;16.00;69.40;;;;;;4995183;28;20054;-80
2021/09/23 04:40:31;;;;;;;3.90;2.20;;;16.00;69.40;;;;;;5011236;28;20040;-79
2021/09/23 04:42:57;;;;;;;1.90;1.70;;;16.00;69.50;;;;;;4995006;28;20030;-81
2021/09/23 04:45:24;;;;;;;2.80;2.03;;;16.00;70.10;;;;;;4995050;28;20117;-80
2021/09/23 04:47:51;;;;;;;2.47;1.70;;;16.00;69.60;;;;;;5007312;28;20054;-79
2021/09/23 04:50:18;;;;;;;2.50;1.80;;;16.00;69.60;;;;;;4983704;28;20029;-79
2021/09/23 04:52:44;;;;;;;4.20;1.70;;;16.00;69.70;;;;;;4996485;28;20394;-81
2021/09/23 04:55:10;;;;;;;5.18;2.47;;;16.00;69.70;;;;;;4968051;28;20030;-78
2021/09/23 04:57:36;;;;;;;3.25;1.70;;;16.10;69.90;;;;;;4957898;28;20060;-76
2021/09/23 05:00:04;;;;;;;3.08;1.90;;;16.10;70.00;;;;;;4972411;28;20076;-79
2021/09/23 05:02:32;;;;;;;4.93;2.55;;;16.10;70.00;;;;;;4993462;28;20063;-77
2021/09/23 05:04:59;;;;;;;2.30;1.65;;;16.10;70.00;;;;;;4982421;28;20022;-78
2021/09/23 05:07:26;;;;;;;2.70;1.40;;;16.10;70.00;;;;;;4970544;28;20033;-78
2021/09/23 05:09:53;;;;;;;3.50;2.47;;;16.20;70.20;;;;;;4970759;28;20030;-79
2021/09/23 05:12:20;;;;;;;3.17;1.58;;;16.20;70.20;;;;;;4976026;28;20466;-79
2021/09/23 05:14:48;;;;;;;3.80;1.77;;;16.20;70.20;;;;;;4987157;28;20034;-78
2021/09/23 05:17:14;;;;;;;2.15;1.42;;;16.20;70.20;;;;;;4998854;28;20034;-81
2021/09/23 05:19:43;;;;;;;2.75;1.58;;;16.20;70.20;;;;;;4975113;28;20521;-78
2021/09/23 05:22:09;;;;;;;3.50;1.80;;;16.30;70.40;;;;;;5004612;28;20073;-81
2021/09/23 05:24:35;;;;;;;1.80;1.20;;;16.30;70.40;;;;;;5011404;28;20014;-76
2021/09/23 05:27:01;;;;;;;3.75;1.70;;;16.30;70.40;;;;;;5011397;28;20034;-78
2021/09/23 05:29:27;;;;;;;3.30;1.77;;;16.30;70.40;;;;;;5010296;28;20019;-80
2021/09/23 05:31:53;;;;;;;3.25;1.80;;;16.30;70.40;;;;;;4992005;28;20100;-78
2021/09/23 05:34:19;;;;;;;2.00;1.65;;;16.40;70.60;;;;;;4967687;28;20106;-77
2021/09/23 05:36:46;;;;;;;7.10;2.15;;;16.40;70.70;;;;;;4990204;28;20053;-78
2021/09/23 05:39:12;;;;;;;13.73;4.30;;;16.40;70.70;;;;;;4987156;28;20034;-77
2021/09/23 05:41:41;;;;;;;14.75;5.38;;;16.40;70.90;;;;;;4991287;28;20034;-77
2021/09/23 05:44:10;;;;;;;15.93;4.70;;;16.40;71.30;;;;;;5006631;28;20030;-76
2021/09/23 05:46:37;;;;;;;14.98;3.67;;;16.50;72.20;;;;;;4983625;28;20038;-76
2021/09/23 05:49:05;;;;;;;14.35;3.70;;;16.50;72.30;;;;;;4986978;28;20027;-76
2021/09/23 05:51:31;;;;;;;9.90;3.35;;;16.60;72.80;;;;;;4967544;28;20038;-77
2021/09/23 05:53:57;;;;;;;14.35;4.25;;;16.60;73.00;;;;;;4992101;28;20482;-77
2021/09/23 05:56:23;;;;;;;11.38;2.88;;;16.60;73.20;;;;;;5006978;28;20365;-78
2021/09/23 05:58:49;;;;;;;11.13;2.92;;;16.60;73.40;;;;;;4993244;28;20494;-77
2021/09/23 06:01:15;;;;;;;13.23;4.05;;;16.70;73.80;;;;;;4997233;28;20343;-76
2021/09/23 06:03:41;;;;;;;19.45;4.43;;;16.70;74.00;;;;;;4993911;28;20034;-76
2021/09/23 06:06:07;;;;;;;12.70;3.92;;;16.80;74.40;;;;;;4986202;28;20022;-76
2021/09/23 06:08:33;;;;;;;11.15;4.45;;;16.80;74.50;;;;;;4987592;28;20132;-78
2021/09/23 06:10:59;;;;;;;6.70;3.13;;;16.80;74.60;;;;;;4988150;28;20053;-78
2021/09/23 06:13:25;;;;;;;10.30;3.05;;;16.90;74.90;;;;;;4980940;28;20025;-77
2021/09/23 06:15:51;;;;;;;10.50;3.75;;;16.90;75.00;;;;;;4988880;28;20350;-77
2021/09/23 06:18:17;;;;;;;15.82;3.72;;;16.90;75.20;;;;;;4994829;28;20026;-76
2021/09/23 06:20:47;;;;;;;7.43;2.83;;;17.00;75.40;;;;;;4979036;28;20397;-77
2021/09/23 06:23:14;;;;;;;8.32;2.58;;;17.00;75.40;;;;;;4986721;28;20026;-78
2021/09/23 06:25:40;;;;;;;8.57;2.10;;;17.00;75.40;;;;;;4987377;28;20404;-78
2021/09/23 06:28:06;;;;;;;6.25;2.65;;;17.10;75.60;;;;;;5004770;28;20113;-77
2021/09/23 06:30:32;;;;;;;8.60;2.58;;;17.10;76.10;;;;;;4987179;28;20056;-78
2021/09/23 06:32:58;;;;;;;10.75;2.58;;;17.10;75.60;;;;;;4962004;28;20466;-78
2021/09/23 06:35:25;;;;;;;6.85;2.00;;;17.10;75.50;;;;;;4984532;28;20296;-77
2021/09/23 06:37:51;;;;;;;8.20;3.08;;;17.20;75.70;;;;;;4953246;28;20038;-78
2021/09/23 06:40:17;;;;;;;7.28;2.53;;;17.10;75.40;;;;;;4985417;28;20034;-79
2021/09/23 06:42:44;;;;;;;5.13;2.20;;;17.20;75.50;;;;;;4987015;28;20046;-78
2021/09/23 06:45:11;;;;;;;5.60;2.92;;;17.20;75.50;;;;;;4986734;28;20026;-78
2021/09/23 06:47:37;;;;;;;6.75;2.00;;;17.20;75.40;;;;;;4983457;28;20050;-78
2021/09/23 06:50:04;;;;;;;8.98;3.22;;;17.20;75.40;;;;;;4966833;28;20084;-78
2021/09/23 06:52:30;;;;;;;11.50;2.72;;;17.30;75.50;;;;;;4973057;28;20030;-78
2021/09/23 06:54:56;;;;;;;7.20;2.13;;;17.30;75.40;;;;;;5006137;28;20040;-78
2021/09/23 06:57:22;;;;;;;6.63;2.17;;;17.30;75.30;;;;;;5005238;28;20034;-78
2021/09/23 07:00:07;;;;;;;7.57;2.40;;;17.30;75.30;;;;;;4984601;28;20034;-77
2021/09/23 07:02:52;;;;;;;4.18;2.30;;;17.30;75.10;;;;;;4973711;28;20449;-78
2021/09/23 07:05:31;;;;;;;7.75;2.10;;;17.40;75.30;;;;;;4985485;28;20027;-78
2021/09/23 07:07:59;;;;;;;5.60;2.17;;;17.40;75.30;;;;;;4974167;28;20379;-78
2021/09/23 07:10:24;;;;;;;4.97;1.73;;;17.40;75.20;;;;;;4989933;28;20029;-77
2021/09/23 07:12:51;;;;;;;5.85;2.25;;;17.40;75.20;;;;;;4992347;28;20038;-78
2021/09/23 07:15:16;;;;;;;6.78;2.08;;;17.40;75.10;;;;;;4993300;28;20041;-78
2021/09/23 07:17:42;;;;;;;4.85;1.55;;;17.50;75.20;;;;;;5009048;28;20038;-78
2021/09/23 07:20:09;;;;;;;9.05;2.10;;;17.50;75.20;;;;;;4958007;28;20379;-78
2021/09/23 07:22:35;;;;;;;5.80;2.38;;;17.60;75.30;;;;;;4996827;28;20069;-78
2021/09/23 07:25:03;;;;;;;5.07;1.80;;;17.60;75.20;;;;;;4997589;28;20097;-79
2021/09/23 07:27:32;;;;;;;5.00;2.20;;;17.60;75.20;;;;;;5004972;28;20121;-78
2021/09/23 07:29:57;;;;;;;4.88;1.80;;;17.70;75.30;;;;;;5005324;28;20049;-78
2021/09/23 07:32:24;;;;;;;4.38;1.65;;;17.70;75.20;;;;;;5016196;28;20038;-78
2021/09/23 07:34:50;;;;;;;4.53;1.65;;;17.70;75.10;;;;;;5001723;28;20030;-80
2021/09/23 07:37:16;;;;;;;6.40;2.92;;;17.80;75.20;;;;;;5002790;28;20533;-79
2021/09/23 07:39:42;;;;;;;4.80;1.98;;;17.90;75.20;;;;;;5003141;28;20029;-80
2021/09/23 07:42:08;;;;;;;6.32;2.45;;;17.90;75.10;;;;;;5001967;28;20107;-78
2021/09/23 07:44:36;;;;;;;7.68;1.92;;;18.00;75.10;;;;;;4984609;28;20482;-79
2021/09/23 07:47:03;;;;;;;4.07;1.80;;;18.10;75.30;;;;;;5010250;28;20040;-80
2021/09/23 07:49:29;;;;;;;4.70;1.40;;;18.10;75.10;;;;;;4987034;28;20026;-79
2021/09/23 07:51:55;;;;;;;5.07;1.63;;;18.30;75.30;;;;;;5003117;28;20081;-79
2021/09/23 07:54:22;;;;;;;4.65;1.73;;;18.30;75.10;;;;;;5001789;28;20053;-77
2021/09/23 07:56:48;;;;;;;5.70;1.83;;;18.40;75.10;;;;;;4968949;28;20042;-79
2021/09/23 07:59:14;;;;;;;4.80;2.15;;;18.50;75.10;;;;;;4997522;28;20034;-79
2021/09/23 08:01:41;;;;;;;4.40;1.95;;;18.60;75.10;;;;;;4986042;28;20057;-78
2021/09/23 08:04:07;;;;;;;5.80;1.95;;;18.70;75.10;;;;;;5015894;28;20026;-77
2021/09/23 08:06:34;;;;;;;7.28;2.10;;;18.70;75.00;;;;;;5013830;28;20057;-78
2021/09/23 08:09:00;;;;;;;4.30;1.60;;;18.70;74.90;;;;;;5005372;28;20038;-77
2021/09/23 08:11:26;;;;;;;3.65;1.20;;;18.80;75.00;;;;;;5004660;28;20022;-77
2021/09/23 08:13:58;;;;;;;4.28;1.73;;;18.80;74.90;;;;;;4998718;28;20065;-78
2021/09/23 08:16:24;;;;;;;6.70;1.50;;;18.80;74.80;;;;;;4989789;28;20042;-78
2021/09/23 08:19:07;;;;;;;4.90;1.65;;;18.90;74.80;;;;;;4989125;28;20040;-77
2021/09/23 08:21:44;;;;;;;3.90;1.40;;;18.90;74.80;;;;;;4982202;28;20381;-78
2021/09/23 08:24:10;;;;;;;8.55;2.45;;;18.90;75.00;;;;;;5018153;28;20065;-79
2021/09/23 08:26:36;;;;;;;4.35;2.03;;;19.00;75.40;;;;;;5002819;28;20053;-78
2021/09/23 08:29:03;;;;;;;4.90;2.85;;;19.10;75.70;;;;;;5004035;28;20038;-78
2021/09/23 08:31:30;;;;;;;5.47;2.28;;;19.10;75.80;;;;;;5020405;28;20053;-78
2021/09/23 08:33:58;;;;;;;6.55;1.98;;;19.10;76.00;;;;;;4985948;28;20128;-77
2021/09/23 08:36:24;;;;;;;5.15;1.90;;;19.20;76.20;;;;;;4983652;28;20088;-79
2021/09/23 08:38:50;;;;;;;3.25;1.40;;;19.30;76.40;;;;;;5011606;28;20045;-78
2021/09/23 08:41:17;;;;;;;4.03;1.75;;;19.40;76.60;;;;;;5001241;28;20046;-76
2021/09/23 08:43:45;;;;;;;2.78;1.60;;;19.50;76.60;;;;;;4985624;28;20137;-78
2021/09/23 08:46:12;;;;;;;4.15;1.73;;;19.60;76.60;;;;;;5001582;28;20033;-77
2021/09/23 08:48:38;;;;;;;6.15;2.05;;;19.70;76.60;;;;;;5002009;28;20080;-76
2021/09/23 08:51:04;;;;;;;4.43;1.42;;;19.70;76.50;;;;;;5011495;28;20026;-79
2021/09/23 08:53:32;;;;;;;5.63;2.65;;;19.70;76.30;;;;;;5015663;28;20191;-79
2021/09/23 08:55:58;;;;;;;6.15;1.63;;;19.70;76.20;;;;;;5015149;28;20072;-78
2021/09/23 08:58:25;;;;;;;2.83;1.50;;;19.80;76.30;;;;;;5012398;28;20034;-78
2021/09/23 09:01:06;;;;;;;3.45;1.50;;;19.90;76.40;;;;;;5011292;28;20045;-79
2021/09/23 09:03:41;;;;;;;3.58;1.20;;;19.90;76.20;;;;;;4998391;28;20453;-78
2021/09/23 09:06:30;;;;;;;7.60;1.73;;;20.00;76.20;;;;;;4972526;28;20170;-80
2021/09/23 09:09:25;;;;;;;3.70;1.38;;;20.00;76.00;;;;;;4993671;28;20056;-78
2021/09/23 09:11:52;;;;;;;2.38;1.38;;;20.00;75.90;;;;;;5003758;28;20341;-78
2021/09/23 09:14:31;;;;;;;4.13;1.50;;;20.00;75.90;;;;;;4975619;28;20451;-77
2021/09/23 09:17:06;;;;;;;5.78;1.45;;;20.00;75.80;;;;;;4996209;28;20103;-77
2021/09/23 09:20:01;;;;;;;3.60;1.42;;;20.00;75.70;;;;;;4971269;28;20108;-77
2021/09/23 09:22:31;;;;;;;2.88;1.35;;;20.00;75.70;;;;;;4983344;28;20054;-77
2021/09/23 09:25:00;;;;;;;3.75;1.15;;;20.10;75.80;;;;;;4974518;28;20104;-77
2021/09/23 09:27:32;;;;;;;3.65;1.30;;;20.10;75.80;;;;;;5007198;28;20029;-77
2021/09/23 09:30:05;;;;;;;4.55;1.38;;;20.10;75.70;;;;;;4989935;28;20544;-77
2021/09/23 09:32:46;;;;;;;3.38;1.30;;;20.10;75.60;;;;;;4993846;28;20049;-78
2021/09/23 09:35:19;;;;;;;2.78;1.02;;;20.20;75.70;;;;;;4986773;28;20098;-76
2021/09/23 09:37:52;;;;;;;2.83;1.50;;;20.20;75.50;;;;;;4985506;28;20050;-76
2021/09/23 09:40:22;;;;;;;3.83;1.13;;;20.20;75.40;;;;;;4986027;28;20495;-76
2021/09/23 09:42:53;;;;;;;2.97;1.10;;;20.30;75.50;;;;;;4992903;28;20034;-77
2021/09/23 09:45:24;;;;;;;2.85;1.17;;;20.30;75.40;;;;;;4990955;28;20025;-76
2021/09/23 09:47:53;;;;;;;3.97;1.42;;;20.30;75.30;;;;;;5007611;28;20086;-77
2021/09/23 09:50:28;;;;;;;3.85;1.90;;;20.40;75.50;;;;;;5008410;28;20030;-77
2021/09/23 09:52:57;;;;;;;6.95;1.85;;;20.40;75.30;;;;;;4991928;28;20445;-76
2021/09/23 09:55:31;;;;;;;2.25;1.42;;;20.50;75.40;;;;;;4991433;28;20045;-76
2021/09/23 09:57:57;;;;;;;2.55;1.35;;;20.50;75.30;;;;;;4986785;28;20034;-77
2021/09/23 10:00:26;;;;;;;4.20;1.42;;;20.50;75.20;;;;;;4987457;28;20038;-77
2021/09/23 10:02:53;;;;;;;2.40;1.17;;;20.60;75.20;;;;;;4986547;28;20029;-78
2021/09/23 10:05:29;;;;;;;3.90;1.40;;;20.60;75.70;;;;;;4955525;28;20026;-77
2021/09/23 10:07:58;;;;;;;1.85;0.88;;;20.70;75.20;;;;;;4957872;28;20563;-77
2021/09/23 10:10:28;;;;;;;2.10;0.95;;;20.80;75.30;;;;;;5005384;28;20502;-77
2021/09/23 10:12:58;;;;;;;3.30;1.30;;;20.80;75.10;;;;;;4989625;28;20034;-76
2021/09/23 10:15:25;;;;;;;2.85;1.10;;;20.90;75.20;;;;;;4989909;28;20045;-76
2021/09/23 10:17:53;;;;;;;3.72;1.30;;;21.00;75.20;;;;;;4986367;28;20034;-77
2021/09/23 10:20:22;;;;;;;4.72;1.27;;;21.10;75.20;;;;;;4986213;28;20121;-77
2021/09/23 10:22:49;;;;;;;6.95;1.40;;;21.20;75.20;;;;;;4975305;28;20030;-77
2021/09/23 10:25:22;;;;;;;2.40;0.88;;;21.30;75.10;;;;;;4989263;28;20433;-77
2021/09/23 10:27:57;;;;;;;2.97;1.30;;;21.40;75.00;;;;;;4972439;28;20030;-78
2021/09/23 10:30:35;;;;;;;3.17;1.17;;;21.50;75.00;;;;;;5005069;28;20403;-76
2021/09/23 10:33:04;;;;;;;5.20;1.73;;;21.50;74.80;;;;;;5004561;28;20033;-78
2021/09/23 10:35:31;;;;;;;4.47;1.20;;;21.60;74.90;;;;;;4990158;28;20083;-77
2021/09/23 10:38:04;;;;;;;4.32;1.67;;;21.70;74.90;;;;;;4991955;28;20116;-77
2021/09/23 10:40:33;;;;;;;3.47;1.50;;;21.70;74.80;;;;;;4990571;28;20026;-77
2021/09/23 10:43:06;;;;;;;2.25;1.10;;;21.80;74.80;;;;;;4982575;28;20031;-77
2021/09/23 10:45:34;;;;;;;3.60;1.25;;;21.90;74.90;;;;;;4985886;28;20419;-76
2021/09/23 10:48:03;;;;;;;2.85;1.42;;;22.00;74.90;;;;;;4984380;28;20050;-76
2021/09/23 10:50:37;;;;;;;2.38;1.33;;;22.00;74.70;;;;;;4988518;28;20034;-77
2021/09/23 10:53:08;;;;;;;2.63;1.05;;;22.20;74.90;;;;;;4989728;28;20042;-77
2021/09/23 10:55:39;;;;;;;1.25;0.88;;;22.30;74.80;;;;;;4985554;28;20502;-77
2021/09/23 10:58:07;;;;;;;2.35;1.00;;;22.40;74.70;;;;;;4973556;28;20443;-77
2021/09/23 11:00:34;;;;;;;2.47;0.85;;;22.60;74.80;;;;;;4990417;28;20233;-77
2021/09/23 11:03:10;;;;;;;1.88;0.90;;;22.60;74.60;;;;;;4990303;28;20037;-78
2021/09/23 11:05:41;;;;;;;3.13;1.30;;;22.80;74.60;;;;;;4989639;28;20553;-76
2021/09/23 11:08:12;;;;;;;4.80;1.08;;;22.90;74.60;;;;;;4983741;28;20031;-76
2021/09/23 11:10:43;;;;;;;1.60;0.80;;;23.00;74.50;;;;;;4969005;28;20499;-77
2021/09/23 11:13:15;;;;;;;3.03;1.20;;;23.10;74.40;;;;;;4961609;28;20029;-77
2021/09/23 11:15:43;;;;;;;0.88;0.75;;;23.10;74.10;;;;;;5006002;28;20095;-77
2021/09/23 11:18:11;;;;;;;2.33;0.90;;;23.20;74.20;;;;;;4988364;28;20109;-78
2021/09/23 11:20:43;;;;;;;2.67;1.13;;;23.20;74.10;;;;;;4988292;28;20025;-77
2021/09/23 11:23:11;;;;;;;1.38;0.70;;;23.20;73.90;;;;;;4983717;28;20389;-78
2021/09/23 11:25:41;;;;;;;2.65;0.80;;;23.20;73.90;;;;;;4969005;28;20038;-77
2021/09/23 11:28:10;;;;;;;2.92;0.98;;;23.20;73.90;;;;;;4974233;28;20022;-78
2021/09/23 11:30:38;;;;;;;2.25;0.82;;;23.20;73.90;;;;;;5004397;28;20120;-77
2021/09/23 11:33:07;;;;;;;1.67;0.82;;;23.20;73.80;;;;;;4988018;28;20021;-77
2021/09/23 11:35:42;;;;;;;2.25;1.00;;;23.30;73.90;;;;;;4988524;28;20026;-78
2021/09/23 11:38:10;;;;;;;2.55;0.70;;;23.30;73.80;;;;;;4987960;28;20057;-79
2021/09/23 11:40:42;;;;;;;2.03;0.98;;;23.40;73.90;;;;;;5004339;28;20466;-78
2021/09/23 11:43:11;;;;;;;1.75;0.98;;;23.50;73.80;;;;;;4987750;28;20053;-77
2021/09/23 11:45:40;;;;;;;3.47;0.93;;;23.60;73.80;;;;;;4987901;28;20030;-78
2021/09/23 11:48:15;;;;;;;2.75;1.23;;;23.60;73.60;;;;;;4982751;28;20168;-77
2021/09/23 11:51:00;;;;;;;1.40;0.80;;;23.70;73.50;;;;;;4968692;28;20045;-78
2021/09/23 11:53:32;;;;;;;2.45;0.80;;;23.70;73.50;;;;;;4995707;28;20125;-77
2021/09/23 11:56:04;;;;;;;2.00;1.00;;;23.70;73.40;;;;;;4988987;28;20469;-78
2021/09/23 11:58:39;;;;;;;3.58;1.25;;;23.70;73.80;;;;;;4991559;28;20034;-79
2021/09/23 12:01:07;;;;;;;5.07;1.20;;;23.70;73.20;;;;;;5008311;28;20045;-77
2021/09/23 12:03:42;;;;;;;2.05;0.95;;;23.70;73.10;;;;;;4979428;28;20037;-78
2021/09/23 12:06:11;;;;;;;0.98;0.70;;;23.70;73.10;;;;;;4985330;28;20358;-77
2021/09/23 12:08:40;;;;;;;2.28;1.30;;;23.70;73.00;;;;;;4997181;28;20401;-79
2021/09/23 12:11:12;;;;;;;2.65;1.38;;;23.70;73.00;;;;;;4992169;28;20025;-78
2021/09/23 12:13:45;;;;;;;1.45;0.90;;;23.70;73.00;;;;;;5007894;28;20485;-79
2021/09/23 12:16:16;;;;;;;1.85;0.98;;;23.70;73.00;;;;;;4991626;28;20042;-77
2021/09/23 12:18:46;;;;;;;2.00;1.50;;;23.70;73.00;;;;;;4975450;28;20034;-78
2021/09/23 12:21:21;;;;;;;2.03;1.23;;;23.70;73.00;;;;;;4991405;28;20168;-78
2021/09/23 12:23:50;;;;;;;1.58;1.30;;;23.70;73.00;;;;;;4977381;28;20030;-77
2021/09/23 12:26:36;;;;;;;4.05;1.58;;;23.80;73.00;;;;;;4971983;28;20030;-77
2021/09/23 12:29:11;;;;;;;3.67;1.70;;;23.80;72.90;;;;;;4989394;28;20042;-77
2021/09/23 12:32:06;;;;;;;2.03;1.50;;;23.80;72.80;;;;;;4987721;28;20086;-77
2021/09/23 12:34:45;;;;;;;1.55;1.30;;;23.90;72.80;;;;;;4971788;28;20042;-77
2021/09/23 12:37:13;;;;;;;5.43;1.85;;;24.00;72.90;;;;;;4987152;28;20042;-77
2021/09/23 12:40:04;;;;;;;2.90;2.10;;;24.00;72.80;;;;;;4987541;28;20026;-76
2021/09/23 12:42:34;;;;;;;2.88;1.73;;;24.00;72.70;;;;;;4974251;28;20042;-77
2021/09/23 12:45:15;;;;;;;3.70;1.90;;;24.10;72.90;;;;;;4990388;28;20095;-77
2021/09/23 12:47:48;;;;;;;4.57;2.23;;;24.10;72.80;;;;;;4972519;28;20041;-78
2021/09/23 12:50:21;;;;;;;2.40;1.80;;;24.10;72.70;;;;;;4987342;28;20026;-75
2021/09/23 12:52:49;;;;;;;2.38;2.03;;;24.20;72.80;;;;;;4987088;28;20496;-77
2021/09/23 12:55:24;;;;;;;3.15;1.75;;;24.20;72.70;;;;;;4990333;28;20033;-79